createdAt,value
2017-10-20T00:00:41.712Z,73840.38
2017-10-20T00:01:41.737Z,73840.01
2017-10-20T00:02:41.765Z,73839.97
2017-10-20T00:03:41.790Z,73836.52
2017-10-20T00:04:41.823Z,73840.41
2017-10-20T00:05:41.842Z,73837.74
2017-10-20T00:06:41.869Z,73834.18
2017-10-20T00:07:41.897Z,73837.07
2017-10-20T00:08:41.924Z,73836.44
2017-10-20T00:09:41.948Z,73839.10
2017-10-20T00:10:41.974Z,73835.88
2017-10-20T00:11:41.999Z,73841.95
2017-10-20T00:12:42.026Z,73835.73
2017-10-20T00:13:42.053Z,73837.20
2017-10-20T00:14:42.079Z,73840.00
2017-10-20T00:15:42.104Z,73839.26
2017-10-20T00:16:42.131Z,73838.98
2017-10-20T00:17:42.156Z,73838.28
2017-10-20T00:18:42.184Z,73841.20
2017-10-20T00:19:42.209Z,73841.05
2017-10-20T00:20:42.235Z,73840.98
2017-10-20T00:21:42.262Z,73844.13
2017-10-20T00:22:42.288Z,73841.95
2017-10-20T00:23:42.314Z,73843.55
2017-10-20T00:24:42.341Z,73841.67
2017-10-20T00:25:42.366Z,73841.02
2017-10-20T00:26:42.393Z,73843.73
2017-10-20T00:27:42.419Z,73842.14
2017-10-20T00:28:42.445Z,73845.52
2017-10-20T00:29:42.470Z,73843.64
2017-10-20T00:30:42.497Z,73847.02
2017-10-20T00:31:42.523Z,73848.30
2017-10-20T00:32:42.549Z,73847.66
2017-10-20T00:33:42.577Z,73851.52
2017-10-20T00:34:42.606Z,73852.17
2017-10-20T00:35:42.630Z,73853.76
2017-10-20T00:36:42.654Z,73852.86
2017-10-20T00:37:42.680Z,73848.39
2017-10-20T00:38:42.757Z,73847.24
2017-10-20T00:39:42.731Z,73847.90
2017-10-20T00:40:42.758Z,73848.23
2017-10-20T00:41:42.785Z,73841.88
2017-10-20T00:42:42.811Z,73848.31
2017-10-20T00:43:42.836Z,73854.34
2017-10-20T00:44:42.863Z,73848.56
2017-10-20T00:45:42.889Z,73849.14
2017-10-20T00:46:42.914Z,73851.62
2017-10-20T00:47:42.940Z,73852.60
2017-10-20T00:48:42.966Z,73851.22
2017-10-20T00:49:42.992Z,73847.55
2017-10-20T00:50:43.020Z,73849.52
2017-10-20T00:51:43.045Z,73850.14
2017-10-20T00:52:43.071Z,73847.49
2017-10-20T00:53:43.097Z,73846.54
2017-10-20T00:54:43.124Z,73850.08
2017-10-20T00:55:43.148Z,73848.94
2017-10-20T00:56:43.174Z,73851.88
2017-10-20T00:57:43.202Z,73852.20
2017-10-20T00:58:43.228Z,73853.58
2017-10-20T00:59:43.253Z,73852.50
2017-10-20T01:00:43.281Z,73852.85
2017-10-20T01:01:43.305Z,73845.43
2017-10-20T01:02:43.381Z,73853.90
2017-10-20T01:03:43.357Z,73852.20
2017-10-20T01:04:43.383Z,73848.55
2017-10-20T01:05:43.409Z,73853.76
2017-10-20T01:06:43.435Z,73853.30
2017-10-20T01:07:43.460Z,73852.74
2017-10-20T01:08:43.487Z,73855.23
2017-10-20T01:09:43.521Z,73853.88
2017-10-20T01:10:43.541Z,73850.20
2017-10-20T01:11:43.565Z,73856.81
2017-10-20T01:12:43.610Z,73853.92
2017-10-20T01:13:43.617Z,73859.66
2017-10-20T01:14:43.642Z,73857.13
2017-10-20T01:15:43.668Z,73855.58
2017-10-20T01:16:43.694Z,73856.77
2017-10-20T01:17:43.720Z,73857.00
2017-10-20T01:18:43.746Z,73854.22
2017-10-20T01:19:43.772Z,73855.85
2017-10-20T01:20:43.848Z,73851.46
2017-10-20T01:21:43.830Z,73854.23
2017-10-20T01:22:43.851Z,73852.36
2017-10-20T01:23:43.875Z,73857.28
2017-10-20T01:24:43.901Z,73850.12
2017-10-20T01:25:43.928Z,73855.24
2017-10-20T01:26:44.004Z,73853.00
2017-10-20T01:27:43.979Z,73852.55
2017-10-20T01:28:44.005Z,73853.75
2017-10-20T01:29:44.031Z,73849.59
2017-10-20T01:30:44.058Z,73851.12
2017-10-20T01:31:44.083Z,73847.41
2017-10-20T01:32:44.108Z,73846.99
2017-10-20T01:33:44.135Z,73843.90
2017-10-20T01:34:44.160Z,73846.60
2017-10-20T01:35:44.185Z,73849.56
2017-10-20T01:36:44.212Z,73851.38
2017-10-20T01:37:44.238Z,73848.04
2017-10-20T01:38:44.263Z,73853.63
2017-10-20T01:39:44.289Z,73853.18
2017-10-20T01:40:44.315Z,73852.77
2017-10-20T01:41:44.341Z,73855.59
2017-10-20T01:42:44.366Z,73849.80
2017-10-20T01:43:44.392Z,73854.04
2017-10-20T01:44:44.418Z,73852.01
2017-10-20T01:45:44.444Z,73854.16
2017-10-20T01:46:44.471Z,73857.55
2017-10-20T01:47:44.503Z,73856.20
2017-10-20T01:48:44.521Z,73862.14
2017-10-20T01:49:44.647Z,73857.41
2017-10-20T01:50:44.573Z,73859.17
2017-10-20T01:51:44.598Z,73858.36
2017-10-20T01:52:44.624Z,73858.60
2017-10-20T01:53:44.651Z,73857.62
2017-10-20T01:54:44.677Z,73857.74
2017-10-20T01:55:44.701Z,73862.18
2017-10-20T01:56:44.728Z,73855.75
2017-10-20T01:57:44.754Z,73861.61
2017-10-20T01:58:44.780Z,73856.97
2017-10-20T01:59:44.805Z,73852.04
2017-10-20T02:00:44.831Z,73858.39
2017-10-20T02:01:44.857Z,73862.56
2017-10-20T02:02:44.884Z,73853.77
2017-10-20T02:03:44.908Z,73860.56
2017-10-20T02:04:44.939Z,73861.81
2017-10-20T02:05:44.960Z,73859.91
2017-10-20T02:06:44.991Z,73861.00
2017-10-20T02:07:45.012Z,73861.61
2017-10-20T02:08:45.037Z,73861.20
2017-10-20T02:09:45.063Z,73859.30
2017-10-20T02:10:45.089Z,73859.51
2017-10-20T02:11:45.114Z,73863.22
2017-10-20T02:12:45.140Z,73866.83
2017-10-20T02:13:45.166Z,73866.38
2017-10-20T02:14:45.195Z,73867.07
2017-10-20T02:15:45.217Z,73863.57
2017-10-20T02:16:45.244Z,73859.73
2017-10-20T02:17:45.269Z,73864.91
2017-10-20T02:18:45.395Z,73867.80
2017-10-20T02:19:45.320Z,73864.21
2017-10-20T02:20:45.345Z,73866.66
2017-10-20T02:21:45.372Z,73867.81
2017-10-20T02:22:45.398Z,73869.71
2017-10-20T02:23:45.422Z,73855.38
2017-10-20T02:24:45.499Z,73869.83
2017-10-20T02:25:45.474Z,73870.16
2017-10-20T02:26:45.500Z,73867.45
2017-10-20T02:27:45.530Z,73872.57
2017-10-20T02:28:45.551Z,73872.12
2017-10-20T02:29:45.576Z,73862.07
2017-10-20T02:30:45.653Z,73873.75
2017-10-20T02:31:45.627Z,73869.88
2017-10-20T02:32:45.682Z,73865.85
2017-10-20T02:33:45.679Z,73871.71
2017-10-20T02:34:45.705Z,73869.24
2017-10-20T02:35:45.731Z,73867.45
2017-10-20T02:36:45.756Z,73868.14
2017-10-20T02:37:45.782Z,73868.82
2017-10-20T02:38:45.807Z,73865.02
2017-10-20T02:39:45.833Z,73865.76
2017-10-20T02:40:45.859Z,73866.38
2017-10-20T02:41:45.885Z,73866.30
2017-10-20T02:42:45.911Z,73863.26
2017-10-20T02:43:45.938Z,73861.24
2017-10-20T02:44:45.962Z,73865.20
2017-10-20T02:45:45.989Z,73860.05
2017-10-20T02:46:46.014Z,73858.14
2017-10-20T02:47:46.038Z,73860.18
2017-10-20T02:48:46.076Z,73862.43
2017-10-20T02:49:46.091Z,73862.17
2017-10-20T02:50:46.117Z,73860.98
2017-10-20T02:51:46.141Z,73862.35
2017-10-20T02:52:46.167Z,73860.45
2017-10-20T02:53:46.193Z,73863.48
2017-10-20T02:54:46.269Z,73864.88
2017-10-20T02:55:46.244Z,73861.49
2017-10-20T02:56:46.270Z,73866.69
2017-10-20T02:57:46.297Z,73866.69
2017-10-20T02:58:46.324Z,73869.06
2017-10-20T02:59:46.449Z,73868.70
2017-10-20T03:00:46.374Z,73866.56
2017-10-20T03:01:46.400Z,73870.80
2017-10-20T03:02:46.428Z,73868.80
2017-10-20T03:03:46.451Z,73868.89
2017-10-20T03:04:46.477Z,73867.78
2017-10-20T03:05:46.503Z,73872.35
2017-10-20T03:06:46.529Z,73864.58
2017-10-20T03:07:46.554Z,73868.73
2017-10-20T03:08:46.581Z,73867.88
2017-10-20T03:09:46.642Z,73864.29
2017-10-20T03:10:46.636Z,73869.04
2017-10-20T03:11:46.657Z,73867.04
2017-10-20T03:12:46.683Z,73869.52
2017-10-20T03:13:46.710Z,73868.49
2017-10-20T03:14:46.736Z,73868.03
2017-10-20T03:15:46.761Z,73871.09
2017-10-20T03:16:46.787Z,73871.48
2017-10-20T03:17:46.813Z,73874.91
2017-10-20T03:18:46.839Z,73872.09
2017-10-20T03:19:46.864Z,73872.63
2017-10-20T03:20:46.891Z,73873.15
2017-10-20T03:21:46.943Z,73871.77
2017-10-20T03:22:46.943Z,73870.19
2017-10-20T03:23:46.968Z,73870.94
2017-10-20T03:24:46.999Z,73870.00
2017-10-20T03:25:47.033Z,73870.87
2017-10-20T03:26:47.047Z,73875.63
2017-10-20T03:27:47.072Z,73879.47
2017-10-20T03:28:47.200Z,73876.00
2017-10-20T03:29:47.125Z,73878.20
2017-10-20T03:30:47.152Z,73880.62
2017-10-20T03:31:47.175Z,73874.91
2017-10-20T03:32:47.202Z,73878.59
2017-10-20T03:33:47.229Z,73873.13
2017-10-20T03:34:47.254Z,73874.69
2017-10-20T03:35:47.280Z,73876.00
2017-10-20T03:36:47.306Z,73877.13
2017-10-20T03:37:47.332Z,73877.84
2017-10-20T03:38:47.358Z,73877.59
2017-10-20T03:39:47.384Z,73875.09
2017-10-20T03:40:47.409Z,73877.63
2017-10-20T03:41:47.437Z,73875.60
2017-10-20T03:42:47.463Z,73876.65
2017-10-20T03:43:47.488Z,73878.86
2017-10-20T03:44:47.514Z,73871.65
2017-10-20T03:45:47.541Z,73876.33
2017-10-20T03:46:47.566Z,73876.33
2017-10-20T03:47:47.592Z,73876.38
2017-10-20T03:48:47.618Z,73879.53
2017-10-20T03:49:47.645Z,73878.00
2017-10-20T03:50:47.670Z,73878.88
2017-10-20T03:51:47.696Z,73879.09
2017-10-20T03:52:47.729Z,73877.37
2017-10-20T03:53:47.748Z,73880.33
2017-10-20T03:54:47.774Z,73882.61
2017-10-20T03:55:47.799Z,73875.58
2017-10-20T03:56:47.830Z,73874.98
2017-10-20T03:57:47.852Z,73876.93
2017-10-20T03:58:47.878Z,73878.57
2017-10-20T03:59:47.904Z,73877.47
2017-10-20T04:00:47.934Z,73882.31
2017-10-20T04:01:47.956Z,73881.98
2017-10-20T04:02:47.983Z,73886.20
2017-10-20T04:03:48.007Z,73884.59
2017-10-20T04:04:48.133Z,73885.12
2017-10-20T04:05:48.060Z,73884.83
2017-10-20T04:06:48.088Z,73882.67
2017-10-20T04:07:48.111Z,73883.46
2017-10-20T04:08:48.137Z,73883.09
2017-10-20T04:09:48.164Z,73882.64
2017-10-20T04:10:48.189Z,73881.26
2017-10-20T04:11:48.215Z,73881.99
2017-10-20T04:12:48.241Z,73879.27
2017-10-20T04:13:48.267Z,73877.83
2017-10-20T04:14:48.294Z,73878.41
2017-10-20T04:15:48.319Z,73878.09
2017-10-20T04:16:48.345Z,73881.39
2017-10-20T04:17:48.372Z,73879.39
2017-10-20T04:18:48.396Z,73879.68
2017-10-20T04:19:48.422Z,73880.09
2017-10-20T04:20:48.455Z,73876.61
2017-10-20T04:21:48.474Z,73878.66
2017-10-20T04:22:48.500Z,73876.91
2017-10-20T04:23:48.531Z,73876.30
2017-10-20T04:24:48.552Z,73877.98
2017-10-20T04:25:48.578Z,73877.25
2017-10-20T04:26:48.603Z,73876.92
2017-10-20T04:27:48.628Z,73876.27
2017-10-20T04:28:48.655Z,73873.89
2017-10-20T04:29:48.681Z,73875.20
2017-10-20T04:30:48.707Z,73875.59
2017-10-20T04:31:48.731Z,73875.78
2017-10-20T04:32:48.757Z,73879.02
2017-10-20T04:33:48.784Z,73877.92
2017-10-20T04:34:48.810Z,73881.60
2017-10-20T04:35:48.834Z,73877.07
2017-10-20T04:36:48.861Z,73881.14
2017-10-20T04:37:48.886Z,73884.28
2017-10-20T04:38:48.913Z,73882.87
2017-10-20T04:39:48.937Z,73879.36
2017-10-20T04:40:48.964Z,73881.08
2017-10-20T04:41:48.990Z,73885.43
2017-10-20T04:42:49.016Z,73881.56
2017-10-20T04:43:49.041Z,73881.03
2017-10-20T04:44:49.066Z,73882.58
2017-10-20T04:45:49.193Z,73876.22
2017-10-20T04:46:49.118Z,73878.70
2017-10-20T04:47:49.143Z,73876.10
2017-10-20T04:48:49.170Z,73878.38
2017-10-20T04:49:49.195Z,73877.66
2017-10-20T04:50:49.224Z,73877.52
2017-10-20T04:51:49.247Z,73875.25
2017-10-20T04:52:49.271Z,73875.23
2017-10-20T04:53:49.297Z,73875.86
2017-10-20T04:54:49.324Z,73877.05
2017-10-20T04:55:49.350Z,73877.40
2017-10-20T04:56:49.375Z,73879.13
2017-10-20T04:57:49.401Z,73880.88
2017-10-20T04:58:49.426Z,73881.32
2017-10-20T04:59:49.451Z,73876.16
2017-10-20T05:00:49.478Z,73880.67
2017-10-20T05:01:49.504Z,73875.63
2017-10-20T05:02:49.529Z,73879.16
2017-10-20T05:03:49.555Z,73876.00
2017-10-20T05:04:49.581Z,73880.09
2017-10-20T05:05:49.607Z,73879.36
2017-10-20T05:06:49.633Z,73886.60
2017-10-20T05:07:49.658Z,73881.38
2017-10-20T05:08:49.684Z,73885.86
2017-10-20T05:09:49.710Z,73883.45
2017-10-20T05:10:49.741Z,73884.32
2017-10-20T05:11:49.761Z,73885.63
2017-10-20T05:12:49.786Z,73887.47
2017-10-20T05:13:49.821Z,73881.77
2017-10-20T05:14:49.838Z,73880.70
2017-10-20T05:15:49.863Z,73883.52
2017-10-20T05:16:49.889Z,73883.16
2017-10-20T05:17:49.916Z,73884.41
2017-10-20T05:18:49.941Z,73881.00
2017-10-20T05:19:49.972Z,73885.59
2017-10-20T05:20:49.991Z,73883.28
2017-10-20T05:21:50.017Z,73885.63
2017-10-20T05:22:50.043Z,73884.05
2017-10-20T05:23:50.072Z,73890.10
2017-10-20T05:24:50.094Z,73887.27
2017-10-20T05:25:50.119Z,73890.64
2017-10-20T05:26:50.145Z,73886.39
2017-10-20T05:27:50.170Z,73885.99
2017-10-20T05:28:50.196Z,73885.70
2017-10-20T05:29:50.222Z,73885.05
2017-10-20T05:30:50.248Z,73886.40
2017-10-20T05:31:50.272Z,73880.63
2017-10-20T05:32:50.298Z,73888.99
2017-10-20T05:33:50.324Z,73885.41
2017-10-20T05:34:50.350Z,73885.96
2017-10-20T05:35:50.373Z,73880.97
2017-10-20T05:36:50.400Z,73884.38
2017-10-20T05:37:50.426Z,73886.15
2017-10-20T05:38:50.451Z,73883.34
2017-10-20T05:39:50.475Z,73883.98
2017-10-20T05:40:50.502Z,73883.65
2017-10-20T05:41:50.528Z,73885.86
2017-10-20T05:42:50.553Z,73886.76
2017-10-20T05:43:50.577Z,73886.02
2017-10-20T05:44:50.604Z,73888.82
2017-10-20T05:45:50.629Z,73887.85
2017-10-20T05:46:50.654Z,73885.92
2017-10-20T05:47:50.678Z,73887.31
2017-10-20T05:48:50.704Z,73889.14
2017-10-20T05:49:50.730Z,73886.86
2017-10-20T05:50:50.763Z,73886.86
2017-10-20T05:51:50.779Z,73886.34
2017-10-20T05:52:50.805Z,73887.44
2017-10-20T05:53:50.835Z,73885.48
2017-10-20T05:54:50.856Z,73886.62
2017-10-20T05:55:50.881Z,73884.29
2017-10-20T05:56:50.907Z,73884.46
2017-10-20T05:57:50.933Z,73885.27
2017-10-20T05:58:50.958Z,73885.02
2017-10-20T05:59:50.983Z,73888.08
2017-10-20T06:00:51.008Z,73889.73
2017-10-20T06:01:51.035Z,73890.80
2017-10-20T06:02:51.059Z,73891.82
2017-10-20T06:03:51.090Z,73889.01
2017-10-20T06:04:51.110Z,73890.73
2017-10-20T06:05:51.135Z,73889.45
2017-10-20T06:06:51.161Z,73892.55
2017-10-20T06:07:51.186Z,73892.27
2017-10-20T06:08:51.212Z,73887.88
2017-10-20T06:09:51.237Z,73887.80
2017-10-20T06:10:51.263Z,73885.92
2017-10-20T06:11:51.288Z,73891.98
2017-10-20T06:12:51.313Z,73890.32
2017-10-20T06:13:51.339Z,73888.90
2017-10-20T06:14:51.365Z,73892.78
2017-10-20T06:15:51.390Z,73894.53
2017-10-20T06:16:51.415Z,73894.78
2017-10-20T06:17:51.441Z,73895.71
2017-10-20T06:18:51.467Z,73894.24
2017-10-20T06:19:51.492Z,73896.04
2017-10-20T06:20:51.519Z,73899.48
2017-10-20T06:21:51.544Z,73897.75
2017-10-20T06:22:51.570Z,73895.64
2017-10-20T06:23:51.595Z,73896.66
2017-10-20T06:24:51.622Z,73896.90
2017-10-20T06:25:51.648Z,73904.15
2017-10-20T06:26:51.674Z,73900.37
2017-10-20T06:27:51.699Z,73902.13
2017-10-20T06:28:51.724Z,73901.78
2017-10-20T06:29:51.752Z,73906.31
2017-10-20T06:30:51.779Z,73904.26
2017-10-20T06:31:51.804Z,73909.67
2017-10-20T06:32:51.830Z,73911.30
2017-10-20T06:33:51.857Z,73912.76
2017-10-20T06:34:51.883Z,73909.13
2017-10-20T06:35:51.909Z,73913.31
2017-10-20T06:36:51.936Z,73913.48
2017-10-20T06:37:51.963Z,73913.91
2017-10-20T06:38:51.989Z,73918.27
2017-10-20T06:39:52.015Z,73917.98
2017-10-20T06:40:52.041Z,73922.91
2017-10-20T06:41:52.068Z,73917.60
2017-10-20T06:42:52.095Z,73921.02
2017-10-20T06:43:52.120Z,73922.28
2017-10-20T06:44:52.148Z,73917.74
2017-10-20T06:45:52.175Z,73920.38
2017-10-20T06:46:52.201Z,73916.71
2017-10-20T06:47:52.227Z,73920.78
2017-10-20T06:48:52.255Z,73919.09
2017-10-20T06:49:52.281Z,73920.34
2017-10-20T06:50:52.309Z,73920.61
2017-10-20T06:51:52.334Z,73922.64
2017-10-20T06:52:52.364Z,73923.66
2017-10-20T06:53:52.389Z,73927.16
2017-10-20T06:54:52.416Z,73929.70
2017-10-20T06:55:52.450Z,73932.13
2017-10-20T06:56:52.470Z,73934.31
2017-10-20T06:57:52.498Z,73933.60
2017-10-20T06:58:52.535Z,73932.91
2017-10-20T06:59:52.555Z,73933.90
2017-10-20T07:00:52.579Z,73931.74
2017-10-20T07:01:52.607Z,73932.73
2017-10-20T07:02:52.635Z,73926.61
2017-10-20T07:03:52.661Z,73929.22
2017-10-20T07:04:52.690Z,73930.36
2017-10-20T07:05:52.717Z,73931.63
2017-10-20T07:06:52.745Z,73931.93
2017-10-20T07:07:52.771Z,73934.95
2017-10-20T07:08:52.801Z,73933.50
2017-10-20T07:09:52.828Z,73928.03
2017-10-20T07:10:52.857Z,73930.83
2017-10-20T07:11:52.884Z,73932.19
2017-10-20T07:12:52.912Z,73931.70
2017-10-20T07:13:52.940Z,73933.39
2017-10-20T07:14:52.968Z,73934.40
2017-10-20T07:15:52.995Z,73935.90
2017-10-20T07:16:53.025Z,73934.23
2017-10-20T07:17:53.053Z,73933.01
2017-10-20T07:18:53.081Z,73933.57
2017-10-20T07:19:53.116Z,73936.82
2017-10-20T07:20:53.138Z,73937.68
2017-10-20T07:21:53.166Z,73937.35
2017-10-20T07:22:53.195Z,73932.35
2017-10-20T07:23:53.223Z,73935.27
2017-10-20T07:24:53.251Z,73929.86
2017-10-20T07:25:53.281Z,73930.31
2017-10-20T07:26:53.310Z,73931.41
2017-10-20T07:27:53.338Z,73931.12
2017-10-20T07:28:53.367Z,73931.59
2017-10-20T07:29:53.397Z,73932.94
2017-10-20T07:30:53.426Z,73933.05
2017-10-20T07:31:53.454Z,73933.64
2017-10-20T07:32:53.484Z,73933.76
2017-10-20T07:33:53.514Z,73935.80
2017-10-20T07:34:53.544Z,73940.21
2017-10-20T07:35:53.581Z,73940.91
2017-10-20T07:36:53.602Z,73941.04
2017-10-20T07:37:53.633Z,73940.74
2017-10-20T07:38:53.663Z,73944.36
2017-10-20T07:39:53.692Z,73946.47
2017-10-20T07:40:53.721Z,73951.17
2017-10-20T07:41:53.752Z,73947.66
2017-10-20T07:42:53.785Z,73947.66
2017-10-20T07:43:53.812Z,73951.80
2017-10-20T07:44:53.841Z,73951.50
2017-10-20T07:45:53.873Z,73948.28
2017-10-20T07:46:53.902Z,73953.80
2017-10-20T07:47:53.932Z,73954.71
2017-10-20T07:48:53.962Z,73953.04
2017-10-20T07:49:53.993Z,73952.20
2017-10-20T07:50:54.024Z,73958.01
2017-10-20T07:51:54.052Z,73957.23
2017-10-20T07:52:54.084Z,73956.80
2017-10-20T07:53:54.115Z,73958.45
2017-10-20T07:54:54.146Z,73957.07
2017-10-20T07:55:54.175Z,73954.82
2017-10-20T07:56:54.206Z,73956.14
2017-10-20T07:57:54.238Z,73955.36
2017-10-20T07:58:54.270Z,73955.64
2017-10-20T07:59:54.303Z,73956.70
2017-10-20T08:00:54.330Z,73957.77
2017-10-20T08:01:54.362Z,73959.33
2017-10-20T08:02:54.394Z,73961.73
2017-10-20T08:03:54.424Z,73965.55
2017-10-20T08:04:54.456Z,73964.03
2017-10-20T08:05:54.487Z,73963.70
2017-10-20T08:06:54.519Z,73967.07
2017-10-20T08:07:54.548Z,73969.86
2017-10-20T08:08:54.580Z,73965.18
2017-10-20T08:09:54.613Z,73962.99
2017-10-20T08:10:54.645Z,73966.08
2017-10-20T08:11:54.676Z,73967.44
2017-10-20T08:12:54.708Z,73969.95
2017-10-20T08:13:54.755Z,73967.12
2017-10-20T08:14:54.772Z,73962.73
2017-10-20T08:15:54.804Z,73964.60
2017-10-20T08:16:54.836Z,73963.88
2017-10-20T08:17:54.869Z,73966.36
2017-10-20T08:18:54.903Z,73967.91
2017-10-20T08:19:54.935Z,73966.40
2017-10-20T08:20:54.953Z,73969.57
2017-10-20T08:21:54.985Z,73972.92
2017-10-20T08:22:55.018Z,73970.78
2017-10-20T08:23:55.051Z,73972.53
2017-10-20T08:24:55.092Z,73973.78
2017-10-20T08:25:55.116Z,73972.10
2017-10-20T08:26:55.152Z,73973.11
2017-10-20T08:27:55.213Z,73974.05
2017-10-20T08:28:55.216Z,73975.16
2017-10-20T08:29:55.250Z,73970.68
2017-10-20T08:30:55.285Z,73972.24
2017-10-20T08:31:55.318Z,73975.12
2017-10-20T08:32:55.350Z,73975.54
2017-10-20T08:33:55.384Z,73979.40
2017-10-20T08:34:55.419Z,73979.60
2017-10-20T08:35:55.452Z,73978.21
2017-10-20T08:36:55.486Z,73983.28
2017-10-20T08:37:55.521Z,73984.22
2017-10-20T08:38:55.555Z,73983.27
2017-10-20T08:39:55.592Z,73983.95
2017-10-20T08:40:55.626Z,73984.50
2017-10-20T08:41:55.658Z,73988.44
2017-10-20T08:42:55.691Z,73988.90
2017-10-20T08:43:55.725Z,73991.36
2017-10-20T08:44:55.760Z,73989.18
2017-10-20T08:45:55.806Z,73988.80
2017-10-20T08:46:55.829Z,73989.17
2017-10-20T08:47:55.864Z,73993.81
2017-10-20T08:48:55.898Z,73990.84
2017-10-20T08:49:55.932Z,73995.16
2017-10-20T08:50:55.968Z,73995.65
2017-10-20T08:51:56.003Z,73998.02
2017-10-20T08:52:56.038Z,73998.30
2017-10-20T08:53:56.072Z,73994.36
2017-10-20T08:54:56.107Z,73997.77
2017-10-20T08:55:56.141Z,74001.94
2017-10-20T08:56:56.175Z,74004.09
2017-10-20T08:57:56.210Z,74004.30
2017-10-20T08:58:56.250Z,74005.78
2017-10-20T08:59:56.279Z,74006.09
2017-10-20T09:00:56.314Z,74003.73
2017-10-20T09:01:56.350Z,74005.66
2017-10-20T09:02:56.385Z,74007.31
2017-10-20T09:03:56.419Z,74007.23
2017-10-20T09:04:56.454Z,74010.23
2017-10-20T09:05:56.489Z,74007.00
2017-10-20T09:06:56.524Z,74006.73
2017-10-20T09:07:56.559Z,74002.88
2017-10-20T09:08:56.593Z,74007.00
2017-10-20T09:09:56.629Z,74007.35
2017-10-20T09:10:56.663Z,74006.26
2017-10-20T09:11:56.698Z,74009.21
2017-10-20T09:12:56.733Z,74008.95
2017-10-20T09:13:56.769Z,74009.75
2017-10-20T09:14:56.805Z,74009.77
2017-10-20T09:15:56.838Z,74008.19
2017-10-20T09:16:56.874Z,74010.41
2017-10-20T09:17:56.910Z,74006.86
2017-10-20T09:18:56.945Z,74011.22
2017-10-20T09:19:56.980Z,74006.72
2017-10-20T09:20:57.017Z,74002.55
2017-10-20T09:21:57.052Z,74005.43
2017-10-20T09:22:57.089Z,74003.78
2017-10-20T09:23:57.124Z,74004.44
2017-10-20T09:24:57.159Z,74003.51
2017-10-20T09:25:57.195Z,74010.06
2017-10-20T09:26:57.232Z,74000.86
2017-10-20T09:27:57.266Z,74003.61
2017-10-20T09:28:57.302Z,74005.69
2017-10-20T09:29:57.342Z,74007.98
2017-10-20T09:30:57.375Z,74004.97
2017-10-20T09:31:57.409Z,74008.60
2017-10-20T09:32:57.444Z,74007.94
2017-10-20T09:33:57.481Z,74006.49
2017-10-20T09:34:57.523Z,74010.01
2017-10-20T09:35:57.551Z,74007.95
2017-10-20T09:36:57.587Z,74011.29
2017-10-20T09:37:57.624Z,74012.87
2017-10-20T09:38:57.659Z,74015.84
2017-10-20T09:39:57.694Z,74013.77
2017-10-20T09:40:57.730Z,74013.61
2017-10-20T09:41:57.765Z,74016.62
2017-10-20T09:42:57.801Z,74015.89
2017-10-20T09:43:57.836Z,74014.72
2017-10-20T09:44:57.872Z,74012.98
2017-10-20T09:45:57.907Z,74014.89
2017-10-20T09:46:57.944Z,74012.59
2017-10-20T09:47:57.979Z,74012.02
2017-10-20T09:48:58.016Z,74015.41
2017-10-20T09:49:58.052Z,74016.91
2017-10-20T09:50:58.087Z,74016.70
2017-10-20T09:51:58.122Z,74022.34
2017-10-20T09:52:58.159Z,74017.11
2017-10-20T09:53:58.195Z,74019.55
2017-10-20T09:54:58.232Z,74014.97
2017-10-20T09:55:58.267Z,74018.53
2017-10-20T09:56:58.305Z,74017.41
2017-10-20T09:57:58.340Z,74015.65
2017-10-20T09:58:58.376Z,74018.20
2017-10-20T09:59:58.412Z,74016.53
2017-10-20T10:00:58.448Z,74015.78
2017-10-20T10:01:58.483Z,74017.41
2017-10-20T10:02:58.520Z,74016.15
2017-10-20T10:03:58.560Z,74015.21
2017-10-20T10:04:58.592Z,74012.77
2017-10-20T10:05:58.629Z,74012.43
2017-10-20T10:06:58.666Z,74008.34
2017-10-20T10:07:58.701Z,74011.89
2017-10-20T10:08:58.738Z,74010.96
2017-10-20T10:09:58.775Z,74013.47
2017-10-20T10:10:58.813Z,74011.59
2017-10-20T10:11:58.847Z,74012.64
2017-10-20T10:12:58.885Z,74017.18
2017-10-20T10:13:58.921Z,74012.98
2017-10-20T10:14:58.959Z,74020.87
2017-10-20T10:15:59.002Z,74018.36
2017-10-20T10:16:59.036Z,74016.98
2017-10-20T10:17:59.067Z,74015.81
2017-10-20T10:18:59.104Z,74020.36
2017-10-20T10:19:59.140Z,74018.08
2017-10-20T10:20:59.177Z,74017.74
2017-10-20T10:21:59.213Z,74019.59
2017-10-20T10:22:59.249Z,74019.25
2017-10-20T10:23:59.285Z,74016.80
2017-10-20T10:24:59.322Z,74018.34
2017-10-20T10:25:59.358Z,74018.53
2017-10-20T10:26:59.395Z,74018.15
2017-10-20T10:27:59.440Z,74017.23
2017-10-20T10:28:59.467Z,74016.96
2017-10-20T10:29:59.504Z,74023.60
2017-10-20T10:30:59.541Z,74025.41
2017-10-20T10:31:59.576Z,74022.70
2017-10-20T10:32:59.613Z,74028.45
2017-10-20T10:33:59.648Z,74024.54
2017-10-20T10:34:59.685Z,74019.61
2017-10-20T10:35:59.721Z,74020.41
2017-10-20T10:36:59.757Z,74025.48
2017-10-20T10:37:59.793Z,74019.44
2017-10-20T10:38:59.830Z,74020.96
2017-10-20T10:39:59.866Z,74016.16
2017-10-20T10:40:59.901Z,74018.91
2017-10-20T10:41:59.938Z,74015.73
2017-10-20T10:42:59.975Z,74018.22
2017-10-20T10:44:00.019Z,74012.13
2017-10-20T10:45:00.048Z,74017.24
2017-10-20T10:46:00.082Z,74014.05
2017-10-20T10:47:00.120Z,74011.09
2017-10-20T10:48:00.154Z,74012.08
2017-10-20T10:49:00.194Z,74014.30
2017-10-20T10:50:00.226Z,74014.15
2017-10-20T10:51:00.262Z,74013.64
2017-10-20T10:52:00.299Z,74016.67
2017-10-20T10:53:00.334Z,74012.82
2017-10-20T10:54:00.371Z,74017.56
2017-10-20T10:55:00.407Z,74021.59
2017-10-20T10:56:00.442Z,74021.14
2017-10-20T10:57:00.478Z,74023.30
2017-10-20T10:58:00.514Z,74025.99
2017-10-20T10:59:00.550Z,74027.81
2017-10-20T11:00:00.585Z,74022.97
2017-10-20T11:01:00.622Z,74025.75
2017-10-20T11:02:00.658Z,74020.16
2017-10-20T11:03:00.694Z,74018.77
2017-10-20T11:04:00.732Z,74021.71
2017-10-20T11:05:00.769Z,74018.77
2017-10-20T11:06:00.802Z,74013.91
2017-10-20T11:07:00.837Z,74017.59
2017-10-20T11:08:00.873Z,74019.71
2017-10-20T11:09:00.910Z,74021.17
2017-10-20T11:10:00.947Z,74018.86
2017-10-20T11:11:00.982Z,74014.20
2017-10-20T11:12:01.019Z,74017.21
2017-10-20T11:13:01.061Z,74017.56
2017-10-20T11:14:01.091Z,74011.79
2017-10-20T11:15:01.131Z,74014.76
2017-10-20T11:16:01.164Z,74018.13
2017-10-20T11:17:01.209Z,74015.77
2017-10-20T11:18:01.239Z,74015.05
2017-10-20T11:19:01.276Z,74019.75
2017-10-20T11:20:01.312Z,74019.09
2017-10-20T11:21:01.348Z,74018.09
2017-10-20T11:22:01.385Z,74016.90
2017-10-20T11:23:01.422Z,74011.81
2017-10-20T11:24:01.459Z,74006.73
2017-10-20T11:25:01.495Z,74005.29
2017-10-20T11:26:01.532Z,74012.87
2017-10-20T11:27:01.568Z,74008.86
2017-10-20T11:28:01.604Z,74010.04
2017-10-20T11:29:01.641Z,74010.84
2017-10-20T11:30:01.678Z,74012.98
2017-10-20T11:31:01.714Z,74011.76
2017-10-20T11:32:01.753Z,74011.13
2017-10-20T11:33:01.793Z,74014.75
2017-10-20T11:34:01.824Z,74011.30
2017-10-20T11:35:01.860Z,74012.98
2017-10-20T11:36:01.896Z,74007.32
2017-10-20T11:37:01.933Z,74006.32
2017-10-20T11:38:01.971Z,74004.08
2017-10-20T11:39:02.006Z,74006.70
2017-10-20T11:40:02.042Z,74005.96
2017-10-20T11:41:02.078Z,74005.02
2017-10-20T11:42:02.115Z,74010.59
2017-10-20T11:43:02.152Z,74011.30
2017-10-20T11:44:02.189Z,74007.17
2017-10-20T11:45:02.224Z,74006.79